sensor_id;sensor_type;location;lat;lon;timestamp;P1;durP1;ratioP1;P2;durP2;ratioP2
17171;SDS011;8701;50.150;8.756;2023-03-01T00:02:57;9.50;;;7.07;;
17171;SDS011;8701;50.150;8.756;2023-03-01T00:06:59;13.50;;;7.27;;
17171;SDS011;8701;50.150;8.756;2023-03-01T00:11:02;15.10;;;8.27;;
17171;SDS011;8701;50.150;8.756;2023-03-01T00:15:06;10.67;;;7.20;;
17171;SDS011;8701;50.150;8.756;2023-03-01T00:19:11;12.50;;;7.67;;
17171;SDS011;8701;50.150;8.756;2023-03-01T00:23:15;13.33;;;7.67;;
17171;SDS011;8701;50.150;8.756;2023-03-01T00:27:17;13.03;;;7.40;;
17171;SDS011;8701;50.150;8.756;2023-03-01T00:31:20;10.43;;;6.90;;
17171;SDS011;8701;50.150;8.756;2023-03-01T00:35:25;13.47;;;7.23;;
17171;SDS011;8701;50.150;8.756;2023-03-01T00:39:27;9.00;;;6.60;;
17171;SDS011;8701;50.150;8.756;2023-03-01T00:43:30;10.27;;;7.00;;
17171;SDS011;8701;50.150;8.756;2023-03-01T00:47:36;11.13;;;7.50;;
17171;SDS011;8701;50.150;8.756;2023-03-01T00:51:40;9.83;;;6.70;;
17171;SDS011;8701;50.150;8.756;2023-03-01T00:55:42;11.03;;;7.10;;
17171;SDS011;8701;50.150;8.756;2023-03-01T00:59:44;10.90;;;6.80;;
17171;SDS011;8701;50.150;8.756;2023-03-01T01:03:47;9.77;;;7.13;;
17171;SDS011;8701;50.150;8.756;2023-03-01T01:07:52;9.57;;;6.07;;
17171;SDS011;8701;50.150;8.756;2023-03-01T01:11:54;23.27;;;8.20;;
17171;SDS011;8701;50.150;8.756;2023-03-01T01:16:00;10.93;;;6.50;;
17171;SDS011;8701;50.150;8.756;2023-03-01T01:20:02;10.77;;;7.40;;
17171;SDS011;8701;50.150;8.756;2023-03-01T01:24:07;10.50;;;7.43;;
17171;SDS011;8701;50.150;8.756;2023-03-01T01:28:09;12.17;;;7.70;;
17171;SDS011;8701;50.150;8.756;2023-03-01T01:32:11;10.80;;;7.20;;
17171;SDS011;8701;50.150;8.756;2023-03-01T01:36:14;11.27;;;7.77;;
17171;SDS011;8701;50.150;8.756;2023-03-01T01:40:17;11.77;;;8.30;;
17171;SDS011;8701;50.150;8.756;2023-03-01T01:44:21;15.60;;;7.97;;
17171;SDS011;8701;50.150;8.756;2023-03-01T01:48:27;11.43;;;7.63;;
17171;SDS011;8701;50.150;8.756;2023-03-01T01:52:40;12.67;;;7.50;;
17171;SDS011;8701;50.150;8.756;2023-03-01T01:56:46;11.47;;;7.50;;
17171;SDS011;8701;50.150;8.756;2023-03-01T02:00:53;10.90;;;7.97;;
17171;SDS011;8701;50.150;8.756;2023-03-01T02:04:58;10.30;;;7.57;;
17171;SDS011;8701;50.150;8.756;2023-03-01T02:09:11;9.67;;;7.43;;
17171;SDS011;8701;50.150;8.756;2023-03-01T02:13:18;13.00;;;8.13;;
17171;SDS011;8701;50.150;8.756;2023-03-01T02:17:20;15.03;;;8.10;;
17171;SDS011;8701;50.150;8.756;2023-03-01T02:21:31;11.67;;;7.63;;
17171;SDS011;8701;50.150;8.756;2023-03-01T02:25:43;12.93;;;7.40;;
17171;SDS011;8701;50.150;8.756;2023-03-01T02:29:53;10.93;;;7.30;;
17171;SDS011;8701;50.150;8.756;2023-03-01T02:33:55;11.30;;;8.03;;
17171;SDS011;8701;50.150;8.756;2023-03-01T02:37:58;13.43;;;8.27;;
17171;SDS011;8701;50.150;8.756;2023-03-01T02:42:02;12.60;;;8.30;;
17171;SDS011;8701;50.150;8.756;2023-03-01T02:46:08;15.40;;;8.10;;
17171;SDS011;8701;50.150;8.756;2023-03-01T02:50:25;12.50;;;7.30;;
17171;SDS011;8701;50.150;8.756;2023-03-01T02:54:48;13.40;;;7.83;;
17171;SDS011;8701;50.150;8.756;2023-03-01T02:58:55;14.13;;;8.27;;
17171;SDS011;8701;50.150;8.756;2023-03-01T03:03:04;14.20;;;9.03;;
17171;SDS011;8701;50.150;8.756;2023-03-01T03:07:06;13.70;;;8.50;;
17171;SDS011;8701;50.150;8.756;2023-03-01T03:11:08;13.23;;;8.27;;
17171;SDS011;8701;50.150;8.756;2023-03-01T03:15:11;12.60;;;8.43;;
17171;SDS011;8701;50.150;8.756;2023-03-01T03:19:15;13.93;;;8.80;;
17171;SDS011;8701;50.150;8.756;2023-03-01T03:23:17;12.23;;;8.57;;
17171;SDS011;8701;50.150;8.756;2023-03-01T03:27:20;14.17;;;9.03;;
17171;SDS011;8701;50.150;8.756;2023-03-01T03:31:22;11.53;;;8.27;;
17171;SDS011;8701;50.150;8.756;2023-03-01T03:35:27;12.57;;;9.03;;
17171;SDS011;8701;50.150;8.756;2023-03-01T03:39:31;12.73;;;8.70;;
17171;SDS011;8701;50.150;8.756;2023-03-01T03:43:35;14.00;;;8.97;;
17171;SDS011;8701;50.150;8.756;2023-03-01T03:47:39;11.60;;;8.17;;
17171;SDS011;8701;50.150;8.756;2023-03-01T03:51:44;14.50;;;8.80;;
17171;SDS011;8701;50.150;8.756;2023-03-01T03:55:47;16.17;;;8.80;;
17171;SDS011;8701;50.150;8.756;2023-03-01T03:59:52;15.50;;;9.40;;
17171;SDS011;8701;50.150;8.756;2023-03-01T04:03:54;19.97;;;9.10;;
17171;SDS011;8701;50.150;8.756;2023-03-01T04:07:57;12.67;;;8.80;;
17171;SDS011;8701;50.150;8.756;2023-03-01T04:12:03;15.23;;;8.40;;
17171;SDS011;8701;50.150;8.756;2023-03-01T04:16:05;13.83;;;8.97;;
17171;SDS011;8701;50.150;8.756;2023-03-01T04:20:09;13.87;;;8.60;;
17171;SDS011;8701;50.150;8.756;2023-03-01T04:24:13;16.90;;;8.80;;
17171;SDS011;8701;50.150;8.756;2023-03-01T04:28:17;14.63;;;8.97;;
17171;SDS011;8701;50.150;8.756;2023-03-01T04:32:19;13.83;;;9.30;;
17171;SDS011;8701;50.150;8.756;2023-03-01T04:36:22;18.90;;;9.00;;
17171;SDS011;8701;50.150;8.756;2023-03-01T04:40:29;16.00;;;8.23;;
17171;SDS011;8701;50.150;8.756;2023-03-01T04:44:31;16.37;;;9.63;;
17171;SDS011;8701;50.150;8.756;2023-03-01T04:48:34;20.00;;;9.17;;
17171;SDS011;8701;50.150;8.756;2023-03-01T04:52:36;20.80;;;9.47;;
17171;SDS011;8701;50.150;8.756;2023-03-01T04:56:40;13.03;;;8.27;;
17171;SDS011;8701;50.150;8.756;2023-03-01T05:00:42;14.57;;;9.97;;
17171;SDS011;8701;50.150;8.756;2023-03-01T05:04:45;17.40;;;10.07;;
17171;SDS011;8701;50.150;8.756;2023-03-01T05:08:47;14.00;;;8.60;;
17171;SDS011;8701;50.150;8.756;2023-03-01T05:12:51;15.70;;;8.40;;
17171;SDS011;8701;50.150;8.756;2023-03-01T05:16:53;19.27;;;9.93;;
17171;SDS011;8701;50.150;8.756;2023-03-01T05:21:00;14.10;;;9.20;;
17171;SDS011;8701;50.150;8.756;2023-03-01T05:25:04;13.50;;;8.37;;
17171;SDS011;8701;50.150;8.756;2023-03-01T05:29:09;16.10;;;9.27;;
17171;SDS011;8701;50.150;8.756;2023-03-01T05:33:12;15.27;;;8.63;;
17171;SDS011;8701;50.150;8.756;2023-03-01T05:37:14;15.40;;;9.50;;
17171;SDS011;8701;50.150;8.756;2023-03-01T05:41:16;15.50;;;9.97;;
17171;SDS011;8701;50.150;8.756;2023-03-01T05:45:20;14.70;;;9.40;;
17171;SDS011;8701;50.150;8.756;2023-03-01T05:49:24;15.40;;;9.00;;
17171;SDS011;8701;50.150;8.756;2023-03-01T05:53:26;13.83;;;9.40;;
17171;SDS011;8701;50.150;8.756;2023-03-01T05:57:29;15.77;;;9.13;;
17171;SDS011;8701;50.150;8.756;2023-03-01T06:01:32;14.30;;;9.43;;
17171;SDS011;8701;50.150;8.756;2023-03-01T06:05:35;18.67;;;10.60;;
17171;SDS011;8701;50.150;8.756;2023-03-01T06:09:37;16.80;;;9.63;;
17171;SDS011;8701;50.150;8.756;2023-03-01T06:13:40;16.37;;;10.03;;
17171;SDS011;8701;50.150;8.756;2023-03-01T06:17:45;14.37;;;8.90;;
17171;SDS011;8701;50.150;8.756;2023-03-01T06:21:47;12.20;;;8.40;;
17171;SDS011;8701;50.150;8.756;2023-03-01T06:25:49;13.80;;;8.70;;
17171;SDS011;8701;50.150;8.756;2023-03-01T06:29:52;18.07;;;9.53;;
17171;SDS011;8701;50.150;8.756;2023-03-01T06:33:55;16.00;;;8.90;;
17171;SDS011;8701;50.150;8.756;2023-03-01T06:37:58;15.20;;;9.13;;
17171;SDS011;8701;50.150;8.756;2023-03-01T06:42:01;15.90;;;9.20;;
17171;SDS011;8701;50.150;8.756;2023-03-01T06:46:03;14.90;;;9.00;;
17171;SDS011;8701;50.150;8.756;2023-03-01T06:50:09;15.60;;;9.30;;
17171;SDS011;8701;50.150;8.756;2023-03-01T06:54:12;21.87;;;9.90;;
17171;SDS011;8701;50.150;8.756;2023-03-01T06:58:14;16.70;;;9.60;;
17171;SDS011;8701;50.150;8.756;2023-03-01T07:02:17;14.83;;;9.97;;
17171;SDS011;8701;50.150;8.756;2023-03-01T07:06:21;16.33;;;10.10;;
17171;SDS011;8701;50.150;8.756;2023-03-01T07:10:23;16.77;;;9.60;;
17171;SDS011;8701;50.150;8.756;2023-03-01T07:14:26;18.53;;;9.60;;
17171;SDS011;8701;50.150;8.756;2023-03-01T07:18:28;13.80;;;9.03;;
17171;SDS011;8701;50.150;8.756;2023-03-01T07:26:35;14.43;;;9.33;;
17171;SDS011;8701;50.150;8.756;2023-03-01T07:30:37;15.70;;;9.33;;
17171;SDS011;8701;50.150;8.756;2023-03-01T07:34:40;13.07;;;9.00;;
17171;SDS011;8701;50.150;8.756;2023-03-01T07:38:44;16.30;;;9.50;;
17171;SDS011;8701;50.150;8.756;2023-03-01T07:42:46;17.73;;;9.60;;
17171;SDS011;8701;50.150;8.756;2023-03-01T07:46:49;17.77;;;9.57;;
17171;SDS011;8701;50.150;8.756;2023-03-01T07:50:53;17.20;;;9.40;;
17171;SDS011;8701;50.150;8.756;2023-03-01T07:54:56;15.90;;;10.27;;
17171;SDS011;8701;50.150;8.756;2023-03-01T07:58:59;14.67;;;9.10;;
17171;SDS011;8701;50.150;8.756;2023-03-01T08:03:01;15.20;;;9.17;;
17171;SDS011;8701;50.150;8.756;2023-03-01T08:07:04;27.93;;;10.90;;
17171;SDS011;8701;50.150;8.756;2023-03-01T08:11:10;16.27;;;10.17;;
17171;SDS011;8701;50.150;8.756;2023-03-01T08:15:13;16.57;;;11.43;;
17171;SDS011;8701;50.150;8.756;2023-03-01T08:19:15;14.17;;;10.87;;
17171;SDS011;8701;50.150;8.756;2023-03-01T08:23:17;17.50;;;11.00;;
17171;SDS011;8701;50.150;8.756;2023-03-01T08:27:21;15.47;;;11.03;;
17171;SDS011;8701;50.150;8.756;2023-03-01T08:31:25;17.33;;;11.13;;
17171;SDS011;8701;50.150;8.756;2023-03-01T08:35:29;18.63;;;11.50;;
17171;SDS011;8701;50.150;8.756;2023-03-01T08:39:31;14.37;;;10.23;;
17171;SDS011;8701;50.150;8.756;2023-03-01T08:43:35;15.60;;;11.27;;
17171;SDS011;8701;50.150;8.756;2023-03-01T08:47:37;19.10;;;12.30;;
17171;SDS011;8701;50.150;8.756;2023-03-01T08:51:39;17.50;;;11.10;;
17171;SDS011;8701;50.150;8.756;2023-03-01T08:55:42;19.80;;;11.77;;
17171;SDS011;8701;50.150;8.756;2023-03-01T08:59:45;18.27;;;12.13;;
17171;SDS011;8701;50.150;8.756;2023-03-01T09:03:48;16.80;;;12.50;;
17171;SDS011;8701;50.150;8.756;2023-03-01T09:07:50;15.53;;;11.23;;
17171;SDS011;8701;50.150;8.756;2023-03-01T09:11:52;15.77;;;11.20;;
17171;SDS011;8701;50.150;8.756;2023-03-01T09:15:56;15.90;;;11.60;;
17171;SDS011;8701;50.150;8.756;2023-03-01T09:19:58;13.40;;;10.40;;
17171;SDS011;8701;50.150;8.756;2023-03-01T09:24:00;15.60;;;11.50;;
17171;SDS011;8701;50.150;8.756;2023-03-01T09:28:03;14.60;;;11.10;;
17171;SDS011;8701;50.150;8.756;2023-03-01T09:32:07;15.50;;;11.50;;
17171;SDS011;8701;50.150;8.756;2023-03-01T09:36:10;19.43;;;11.30;;
17171;SDS011;8701;50.150;8.756;2023-03-01T09:40:19;20.13;;;10.23;;
17171;SDS011;8701;50.150;8.756;2023-03-01T09:44:27;16.60;;;10.23;;
17171;SDS011;8701;50.150;8.756;2023-03-01T09:48:41;16.97;;;11.40;;
17171;SDS011;8701;50.150;8.756;2023-03-01T09:52:47;17.20;;;11.20;;
17171;SDS011;8701;50.150;8.756;2023-03-01T10:01:23;16.53;;;10.33;;
17171;SDS011;8701;50.150;8.756;2023-03-01T10:05:39;18.83;;;11.67;;
17171;SDS011;8701;50.150;8.756;2023-03-01T10:09:47;15.40;;;11.13;;
17171;SDS011;8701;50.150;8.756;2023-03-01T10:13:50;17.03;;;11.40;;
17171;SDS011;8701;50.150;8.756;2023-03-01T10:18:00;18.93;;;11.23;;
17171;SDS011;8701;50.150;8.756;2023-03-01T10:22:11;17.73;;;11.00;;
17171;SDS011;8701;50.150;8.756;2023-03-01T10:26:29;15.20;;;10.53;;
17171;SDS011;8701;50.150;8.756;2023-03-01T10:30:41;16.90;;;11.20;;
17171;SDS011;8701;50.150;8.756;2023-03-01T10:34:44;14.97;;;10.23;;
17171;SDS011;8701;50.150;8.756;2023-03-01T10:38:49;16.33;;;10.60;;
17171;SDS011;8701;50.150;8.756;2023-03-01T10:42:54;13.37;;;9.10;;
17171;SDS011;8701;50.150;8.756;2023-03-01T10:47:00;12.57;;;8.20;;
17171;SDS011;8701;50.150;8.756;2023-03-01T10:51:06;13.67;;;10.30;;
17171;SDS011;8701;50.150;8.756;2023-03-01T10:55:26;15.00;;;11.23;;
17171;SDS011;8701;50.150;8.756;2023-03-01T10:59:33;12.67;;;8.90;;
17171;SDS011;8701;50.150;8.756;2023-03-01T11:03:37;12.20;;;8.30;;
17171;SDS011;8701;50.150;8.756;2023-03-01T11:07:46;14.40;;;9.30;;
17171;SDS011;8701;50.150;8.756;2023-03-01T11:11:52;12.40;;;9.27;;
17171;SDS011;8701;50.150;8.756;2023-03-01T11:15:59;15.27;;;10.17;;
17171;SDS011;8701;50.150;8.756;2023-03-01T11:20:05;10.90;;;7.90;;
17171;SDS011;8701;50.150;8.756;2023-03-01T11:24:29;12.10;;;9.20;;
17171;SDS011;8701;50.150;8.756;2023-03-01T11:28:37;14.87;;;9.00;;
17171;SDS011;8701;50.150;8.756;2023-03-01T11:32:42;13.17;;;8.17;;
17171;SDS011;8701;50.150;8.756;2023-03-01T11:36:49;12.27;;;8.87;;
17171;SDS011;8701;50.150;8.756;2023-03-01T11:40:57;16.17;;;10.03;;
17171;SDS011;8701;50.150;8.756;2023-03-01T11:45:10;12.87;;;9.87;;
17171;SDS011;8701;50.150;8.756;2023-03-01T11:49:18;10.37;;;7.73;;
17171;SDS011;8701;50.150;8.756;2023-03-01T11:53:47;11.10;;;9.27;;
17171;SDS011;8701;50.150;8.756;2023-03-01T11:58:15;10.50;;;7.60;;
17171;SDS011;8701;50.150;8.756;2023-03-01T12:02:44;15.13;;;7.90;;
17171;SDS011;8701;50.150;8.756;2023-03-01T12:07:14;18.93;;;8.50;;
17171;SDS011;8701;50.150;8.756;2023-03-01T12:11:23;8.33;;;7.33;;
17171;SDS011;8701;50.150;8.756;2023-03-01T12:15:38;11.27;;;8.70;;
17171;SDS011;8701;50.150;8.756;2023-03-01T12:20:08;7.97;;;7.17;;
17171;SDS011;8701;50.150;8.756;2023-03-01T12:28:56;8.37;;;7.23;;
17171;SDS011;8701;50.150;8.756;2023-03-01T12:33:17;8.00;;;7.17;;
17171;SDS011;8701;50.150;8.756;2023-03-01T12:37:31;12.60;;;8.97;;
17171;SDS011;8701;50.150;8.756;2023-03-01T12:41:43;8.07;;;6.83;;
17171;SDS011;8701;50.150;8.756;2023-03-01T12:45:55;10.87;;;7.43;;
17171;SDS011;8701;50.150;8.756;2023-03-01T12:50:10;7.73;;;6.93;;
17171;SDS011;8701;50.150;8.756;2023-03-01T12:54:19;9.40;;;7.60;;
17171;SDS011;8701;50.150;8.756;2023-03-01T12:58:28;7.40;;;6.70;;
17171;SDS011;8701;50.150;8.756;2023-03-01T13:02:35;8.27;;;7.10;;
17171;SDS011;8701;50.150;8.756;2023-03-01T13:06:43;9.47;;;6.97;;
17171;SDS011;8701;50.150;8.756;2023-03-01T13:10:55;9.03;;;6.97;;
17171;SDS011;8701;50.150;8.756;2023-03-01T13:15:00;11.13;;;6.93;;
17171;SDS011;8701;50.150;8.756;2023-03-01T13:19:06;8.73;;;6.97;;
17171;SDS011;8701;50.150;8.756;2023-03-01T13:23:11;10.80;;;7.33;;
17171;SDS011;8701;50.150;8.756;2023-03-01T13:27:29;7.10;;;6.40;;
17171;SDS011;8701;50.150;8.756;2023-03-01T13:35:58;9.63;;;8.03;;
17171;SDS011;8701;50.150;8.756;2023-03-01T13:40:02;8.43;;;7.53;;
17171;SDS011;8701;50.150;8.756;2023-03-01T13:44:13;9.00;;;7.50;;
17171;SDS011;8701;50.150;8.756;2023-03-01T13:48:27;9.60;;;7.97;;
17171;SDS011;8701;50.150;8.756;2023-03-01T13:52:34;10.27;;;8.50;;
17171;SDS011;8701;50.150;8.756;2023-03-01T13:56:40;11.90;;;7.73;;
17171;SDS011;8701;50.150;8.756;2023-03-01T14:00:44;11.80;;;9.80;;
17171;SDS011;8701;50.150;8.756;2023-03-01T14:04:55;7.63;;;6.43;;
17171;SDS011;8701;50.150;8.756;2023-03-01T14:09:02;9.20;;;7.33;;
17171;SDS011;8701;50.150;8.756;2023-03-01T14:13:10;8.13;;;7.33;;
17171;SDS011;8701;50.150;8.756;2023-03-01T14:22:02;14.90;;;7.23;;
17171;SDS011;8701;50.150;8.756;2023-03-01T14:26:14;8.03;;;6.10;;
17171;SDS011;8701;50.150;8.756;2023-03-01T14:30:23;7.00;;;6.30;;
17171;SDS011;8701;50.150;8.756;2023-03-01T14:34:28;10.13;;;6.70;;
17171;SDS011;8701;50.150;8.756;2023-03-01T14:38:31;9.10;;;6.50;;
17171;SDS011;8701;50.150;8.756;2023-03-01T14:42:36;9.20;;;7.73;;
17171;SDS011;8701;50.150;8.756;2023-03-01T14:46:39;10.10;;;7.30;;
17171;SDS011;8701;50.150;8.756;2023-03-01T14:50:46;11.93;;;9.10;;
17171;SDS011;8701;50.150;8.756;2023-03-01T14:54:52;10.13;;;7.70;;
17171;SDS011;8701;50.150;8.756;2023-03-01T14:58:57;7.03;;;5.97;;
17171;SDS011;8701;50.150;8.756;2023-03-01T15:03:00;12.77;;;9.00;;
17171;SDS011;8701;50.150;8.756;2023-03-01T15:07:14;8.67;;;7.17;;
17171;SDS011;8701;50.150;8.756;2023-03-01T15:11:19;11.20;;;7.67;;
17171;SDS011;8701;50.150;8.756;2023-03-01T15:15:30;11.33;;;8.40;;
17171;SDS011;8701;50.150;8.756;2023-03-01T15:19:35;8.13;;;6.67;;
17171;SDS011;8701;50.150;8.756;2023-03-01T15:23:38;11.20;;;8.20;;
17171;SDS011;8701;50.150;8.756;2023-03-01T15:27:44;7.50;;;5.90;;
17171;SDS011;8701;50.150;8.756;2023-03-01T15:31:53;10.07;;;7.67;;
17171;SDS011;8701;50.150;8.756;2023-03-01T15:35:57;12.23;;;7.90;;
17171;SDS011;8701;50.150;8.756;2023-03-01T15:40:02;11.40;;;7.60;;
17171;SDS011;8701;50.150;8.756;2023-03-01T15:44:25;13.90;;;8.00;;
17171;SDS011;8701;50.150;8.756;2023-03-01T15:48:28;11.03;;;7.07;;
17171;SDS011;8701;50.150;8.756;2023-03-01T15:52:32;13.30;;;8.70;;
17171;SDS011;8701;50.150;8.756;2023-03-01T15:56:41;11.67;;;8.20;;
17171;SDS011;8701;50.150;8.756;2023-03-01T16:00:45;10.13;;;7.13;;
17171;SDS011;8701;50.150;8.756;2023-03-01T16:04:49;10.00;;;7.50;;
17171;SDS011;8701;50.150;8.756;2023-03-01T16:08:51;10.40;;;7.63;;
17171;SDS011;8701;50.150;8.756;2023-03-01T16:12:54;10.10;;;7.30;;
17171;SDS011;8701;50.150;8.756;2023-03-01T16:16:57;14.03;;;7.67;;
17171;SDS011;8701;50.150;8.756;2023-03-01T16:20:59;12.80;;;8.30;;
17171;SDS011;8701;50.150;8.756;2023-03-01T16:25:01;14.40;;;8.93;;
17171;SDS011;8701;50.150;8.756;2023-03-01T16:29:05;14.33;;;8.20;;
17171;SDS011;8701;50.150;8.756;2023-03-01T16:33:07;11.87;;;7.80;;
17171;SDS011;8701;50.150;8.756;2023-03-01T16:37:10;14.13;;;8.20;;
17171;SDS011;8701;50.150;8.756;2023-03-01T16:41:13;10.70;;;7.23;;
17171;SDS011;8701;50.150;8.756;2023-03-01T16:45:18;11.10;;;7.17;;
17171;SDS011;8701;50.150;8.756;2023-03-01T16:49:20;12.00;;;7.80;;
17171;SDS011;8701;50.150;8.756;2023-03-01T16:53:22;10.77;;;7.37;;
17171;SDS011;8701;50.150;8.756;2023-03-01T16:57:25;13.40;;;8.37;;
17171;SDS011;8701;50.150;8.756;2023-03-01T17:01:28;13.43;;;8.30;;
17171;SDS011;8701;50.150;8.756;2023-03-01T17:05:39;10.90;;;7.70;;
17171;SDS011;8701;50.150;8.756;2023-03-01T17:09:41;15.37;;;8.37;;
17171;SDS011;8701;50.150;8.756;2023-03-01T17:13:44;11.90;;;7.00;;
17171;SDS011;8701;50.150;8.756;2023-03-01T17:17:47;17.70;;;7.20;;
17171;SDS011;8701;50.150;8.756;2023-03-01T17:21:51;13.10;;;6.67;;
17171;SDS011;8701;50.150;8.756;2023-03-01T17:25:53;17.90;;;7.67;;
17171;SDS011;8701;50.150;8.756;2023-03-01T17:29:56;13.03;;;7.73;;
17171;SDS011;8701;50.150;8.756;2023-03-01T17:33:59;12.77;;;7.73;;
17171;SDS011;8701;50.150;8.756;2023-03-01T17:38:02;11.07;;;7.70;;
17171;SDS011;8701;50.150;8.756;2023-03-01T17:42:04;10.67;;;7.10;;
17171;SDS011;8701;50.150;8.756;2023-03-01T17:46:07;9.67;;;5.70;;
17171;SDS011;8701;50.150;8.756;2023-03-01T17:50:11;12.13;;;8.40;;
17171;SDS011;8701;50.150;8.756;2023-03-01T17:54:13;12.20;;;7.50;;
17171;SDS011;8701;50.150;8.756;2023-03-01T17:58:15;15.23;;;8.57;;
17171;SDS011;8701;50.150;8.756;2023-03-01T18:02:22;15.00;;;8.70;;
17171;SDS011;8701;50.150;8.756;2023-03-01T18:06:27;11.07;;;7.47;;
17171;SDS011;8701;50.150;8.756;2023-03-01T18:10:30;11.10;;;7.47;;
17171;SDS011;8701;50.150;8.756;2023-03-01T18:14:33;12.23;;;8.13;;
17171;SDS011;8701;50.150;8.756;2023-03-01T18:18:36;13.93;;;9.03;;
17171;SDS011;8701;50.150;8.756;2023-03-01T18:22:39;13.03;;;8.83;;
17171;SDS011;8701;50.150;8.756;2023-03-01T18:26:42;13.20;;;8.60;;
17171;SDS011;8701;50.150;8.756;2023-03-01T18:30:44;12.07;;;7.80;;
17171;SDS011;8701;50.150;8.756;2023-03-01T18:34:46;11.10;;;7.73;;
17171;SDS011;8701;50.150;8.756;2023-03-01T18:38:50;10.37;;;7.70;;
17171;SDS011;8701;50.150;8.756;2023-03-01T18:42:55;12.50;;;8.00;;
17171;SDS011;8701;50.150;8.756;2023-03-01T18:46:58;13.07;;;8.30;;
17171;SDS011;8701;50.150;8.756;2023-03-01T18:51:06;10.67;;;7.23;;
17171;SDS011;8701;50.150;8.756;2023-03-01T18:55:11;14.70;;;8.70;;
17171;SDS011;8701;50.150;8.756;2023-03-01T18:59:13;13.20;;;8.53;;
17171;SDS011;8701;50.150;8.756;2023-03-01T19:03:15;13.00;;;8.20;;
17171;SDS011;8701;50.150;8.756;2023-03-01T19:07:17;13.53;;;8.90;;
17171;SDS011;8701;50.150;8.756;2023-03-01T19:11:21;12.33;;;7.60;;
17171;SDS011;8701;50.150;8.756;2023-03-01T19:15:26;12.30;;;8.33;;
17171;SDS011;8701;50.150;8.756;2023-03-01T19:19:29;13.63;;;8.60;;
17171;SDS011;8701;50.150;8.756;2023-03-01T19:23:31;14.13;;;8.43;;
17171;SDS011;8701;50.150;8.756;2023-03-01T19:27:36;12.63;;;8.00;;
17171;SDS011;8701;50.150;8.756;2023-03-01T19:31:38;12.17;;;7.93;;
17171;SDS011;8701;50.150;8.756;2023-03-01T19:35:40;14.07;;;8.77;;
17171;SDS011;8701;50.150;8.756;2023-03-01T19:39:43;12.13;;;7.80;;
17171;SDS011;8701;50.150;8.756;2023-03-01T19:43:48;12.47;;;7.73;;
17171;SDS011;8701;50.150;8.756;2023-03-01T19:47:50;14.23;;;7.70;;
17171;SDS011;8701;50.150;8.756;2023-03-01T19:51:52;12.60;;;7.83;;
17171;SDS011;8701;50.150;8.756;2023-03-01T19:55:57;12.37;;;8.10;;
17171;SDS011;8701;50.150;8.756;2023-03-01T20:00:02;16.53;;;7.63;;
17171;SDS011;8701;50.150;8.756;2023-03-01T20:04:13;12.63;;;7.80;;
17171;SDS011;8701;50.150;8.756;2023-03-01T20:08:15;16.93;;;8.23;;
17171;SDS011;8701;50.150;8.756;2023-03-01T20:12:17;11.67;;;7.80;;
17171;SDS011;8701;50.150;8.756;2023-03-01T20:16:21;13.00;;;7.87;;
17171;SDS011;8701;50.150;8.756;2023-03-01T20:20:24;14.53;;;8.37;;
17171;SDS011;8701;50.150;8.756;2023-03-01T20:24:26;12.90;;;7.90;;
17171;SDS011;8701;50.150;8.756;2023-03-01T20:28:28;15.23;;;7.93;;
17171;SDS011;8701;50.150;8.756;2023-03-01T20:32:32;12.10;;;7.77;;
17171;SDS011;8701;50.150;8.756;2023-03-01T20:36:35;14.70;;;9.03;;
17171;SDS011;8701;50.150;8.756;2023-03-01T20:40:38;27.53;;;8.30;;
17171;SDS011;8701;50.150;8.756;2023-03-01T20:44:41;14.23;;;8.27;;
17171;SDS011;8701;50.150;8.756;2023-03-01T20:48:45;13.13;;;8.20;;
17171;SDS011;8701;50.150;8.756;2023-03-01T20:52:48;12.80;;;7.60;;
17171;SDS011;8701;50.150;8.756;2023-03-01T20:56:50;14.00;;;8.17;;
17171;SDS011;8701;50.150;8.756;2023-03-01T21:00:53;12.13;;;7.50;;
17171;SDS011;8701;50.150;8.756;2023-03-01T21:04:56;13.80;;;8.43;;
17171;SDS011;8701;50.150;8.756;2023-03-01T21:08:58;14.20;;;8.30;;
17171;SDS011;8701;50.150;8.756;2023-03-01T21:13:01;15.23;;;7.83;;
17171;SDS011;8701;50.150;8.756;2023-03-01T21:17:03;13.67;;;8.20;;
17171;SDS011;8701;50.150;8.756;2023-03-01T21:21:07;10.50;;;7.13;;
17171;SDS011;8701;50.150;8.756;2023-03-01T21:25:11;15.50;;;8.60;;
17171;SDS011;8701;50.150;8.756;2023-03-01T21:29:13;13.17;;;8.13;;
17171;SDS011;8701;50.150;8.756;2023-03-01T21:33:15;12.37;;;7.50;;
17171;SDS011;8701;50.150;8.756;2023-03-01T21:37:19;13.03;;;8.33;;
17171;SDS011;8701;50.150;8.756;2023-03-01T21:41:28;12.30;;;8.93;;
17171;SDS011;8701;50.150;8.756;2023-03-01T21:45:33;16.53;;;7.97;;
17171;SDS011;8701;50.150;8.756;2023-03-01T21:49:36;13.70;;;8.00;;
17171;SDS011;8701;50.150;8.756;2023-03-01T21:53:40;15.40;;;8.00;;
17171;SDS011;8701;50.150;8.756;2023-03-01T21:57:42;13.00;;;8.00;;
17171;SDS011;8701;50.150;8.756;2023-03-01T22:01:45;13.70;;;7.63;;
17171;SDS011;8701;50.150;8.756;2023-03-01T22:05:52;15.07;;;8.67;;
17171;SDS011;8701;50.150;8.756;2023-03-01T22:09:56;16.53;;;7.93;;
17171;SDS011;8701;50.150;8.756;2023-03-01T22:14:00;12.13;;;7.80;;
17171;SDS011;8701;50.150;8.756;2023-03-01T22:18:04;10.90;;;7.07;;
17171;SDS011;8701;50.150;8.756;2023-03-01T22:22:06;16.27;;;9.20;;
17171;SDS011;8701;50.150;8.756;2023-03-01T22:26:20;14.83;;;8.40;;
17171;SDS011;8701;50.150;8.756;2023-03-01T22:30:25;13.20;;;8.20;;
17171;SDS011;8701;50.150;8.756;2023-03-01T22:34:27;11.50;;;7.30;;
17171;SDS011;8701;50.150;8.756;2023-03-01T22:38:30;13.00;;;7.67;;
17171;SDS011;8701;50.150;8.756;2023-03-01T22:42:33;12.77;;;8.03;;
17171;SDS011;8701;50.150;8.756;2023-03-01T22:46:35;13.10;;;8.13;;
17171;SDS011;8701;50.150;8.756;2023-03-01T22:50:40;12.67;;;7.87;;
17171;SDS011;8701;50.150;8.756;2023-03-01T22:54:42;13.43;;;7.77;;
17171;SDS011;8701;50.150;8.756;2023-03-01T22:58:46;12.80;;;8.00;;
17171;SDS011;8701;50.150;8.756;2023-03-01T23:02:49;14.90;;;7.57;;
17171;SDS011;8701;50.150;8.756;2023-03-01T23:06:51;14.10;;;7.80;;
17171;SDS011;8701;50.150;8.756;2023-03-01T23:10:54;18.77;;;8.63;;
17171;SDS011;8701;50.150;8.756;2023-03-01T23:14:57;15.27;;;8.63;;
17171;SDS011;8701;50.150;8.756;2023-03-01T23:19:00;12.57;;;8.23;;
17171;SDS011;8701;50.150;8.756;2023-03-01T23:23:04;12.10;;;7.70;;
17171;SDS011;8701;50.150;8.756;2023-03-01T23:27:06;13.43;;;7.10;;
17171;SDS011;8701;50.150;8.756;2023-03-01T23:31:10;17.60;;;8.20;;
17171;SDS011;8701;50.150;8.756;2023-03-01T23:35:14;17.80;;;8.30;;
17171;SDS011;8701;50.150;8.756;2023-03-01T23:39:17;13.27;;;7.93;;
17171;SDS011;8701;50.150;8.756;2023-03-01T23:43:19;15.90;;;8.60;;
17171;SDS011;8701;50.150;8.756;2023-03-01T23:47:22;13.93;;;7.47;;
17171;SDS011;8701;50.150;8.756;2023-03-01T23:51:25;14.87;;;7.50;;
17171;SDS011;8701;50.150;8.756;2023-03-01T23:55:27;18.23;;;7.90;;
17171;SDS011;8701;50.150;8.756;2023-03-01T23:59:30;12.90;;;8.00;;
